createdAt,value
2019-06-27T00:00:27.585Z,75.76
2019-06-27T00:02:53.599Z,76.09
2019-06-27T00:05:19.761Z,75.54
2019-06-27T00:07:45.772Z,75.77
2019-06-27T00:10:12.350Z,75.87
2019-06-27T00:12:38.364Z,75.67
2019-06-27T00:15:04.763Z,76.09
2019-06-27T00:17:31.009Z,75.96
2019-06-27T00:19:57.276Z,75.58
2019-06-27T00:22:23.288Z,75.84
2019-06-27T00:24:49.272Z,75.86
2019-06-27T00:27:15.302Z,75.68
2019-06-27T00:29:41.577Z,75.75
2019-06-27T00:32:07.564Z,75.76
2019-06-27T00:34:33.576Z,76.12
2019-06-27T00:36:59.598Z,76.26
2019-06-27T00:39:25.593Z,75.78
2019-06-27T00:41:51.620Z,74.65
2019-06-27T00:44:17.604Z,74.23
2019-06-27T00:46:43.617Z,74.02
2019-06-27T00:49:09.608Z,74.63
2019-06-27T00:51:35.628Z,75.13
2019-06-27T00:54:01.660Z,75.57
2019-06-27T00:56:27.716Z,75.16
2019-06-27T00:58:53.766Z,75.06
2019-06-27T01:01:19.857Z,75.13
2019-06-27T01:03:45.937Z,74.96
2019-06-27T01:06:12.009Z,74.92
2019-06-27T01:08:37.997Z,74.96
2019-06-27T01:11:04.401Z,75.07
2019-06-27T01:13:30.468Z,74.86
2019-06-27T01:15:56.467Z,75.10
2019-06-27T01:18:22.836Z,75.11
2019-06-27T01:20:48.903Z,75.04
2019-06-27T01:23:15.134Z,74.10
2019-06-27T01:25:42.027Z,73.87
2019-06-27T01:28:08.083Z,73.91
2019-06-27T01:30:34.203Z,73.90
2019-06-27T01:33:00.337Z,74.04
2019-06-27T01:35:26.379Z,74.09
2019-06-27T01:37:52.515Z,73.78
2019-06-27T01:40:19.045Z,74.01
2019-06-27T01:42:45.047Z,74.20
2019-06-27T01:45:13.084Z,74.72
2019-06-27T01:47:39.143Z,74.67
2019-06-27T01:50:05.486Z,74.37
2019-06-27T01:52:31.592Z,74.23
2019-06-27T01:54:57.617Z,73.85
2019-06-27T01:57:23.652Z,73.35
2019-06-27T01:59:49.698Z,73.70
2019-06-27T02:02:15.848Z,74.20
2019-06-27T02:04:41.866Z,74.12
2019-06-27T02:07:07.940Z,74.47
2019-06-27T02:09:34.069Z,74.55
2019-06-27T02:12:00.180Z,74.41
2019-06-27T02:14:26.204Z,74.15
2019-06-27T02:16:52.192Z,73.33
2019-06-27T02:19:18.324Z,73.56
2019-06-27T02:21:44.340Z,73.06
2019-06-27T02:24:10.336Z,73.42
2019-06-27T02:26:36.435Z,73.68
2019-06-27T02:29:02.692Z,74.14
2019-06-27T02:31:28.736Z,74.66
2019-06-27T02:33:54.707Z,75.32
2019-06-27T02:36:21.484Z,74.96
2019-06-27T02:38:47.516Z,74.27
2019-06-27T02:41:13.526Z,74.13
2019-06-27T02:43:39.527Z,73.98
2019-06-27T02:51:32.921Z,74.54
2019-06-27T02:54:06.002Z,74.42
2019-06-27T03:10:29.270Z,75.33
2019-06-27T03:12:55.388Z,75.29
2019-06-27T03:15:21.465Z,75.58
2019-06-27T03:17:47.458Z,75.13
2019-06-27T03:20:13.656Z,74.55
2019-06-27T03:22:39.781Z,74.50
2019-06-27T03:25:06.067Z,74.70
2019-06-27T03:27:32.091Z,75.40
2019-06-27T03:29:58.238Z,75.33
2019-06-27T03:32:24.218Z,74.96
2019-06-27T03:34:50.241Z,74.71
2019-06-27T03:37:16.368Z,74.27
2019-06-27T03:39:42.346Z,74.15
2019-06-27T03:42:08.352Z,74.05
2019-06-27T03:44:34.321Z,72.82
2019-06-27T03:47:00.353Z,73.17
2019-06-27T03:49:26.325Z,73.88
2019-06-27T03:51:52.466Z,73.38
2019-06-27T03:54:18.454Z,73.58
2019-06-27T03:56:44.429Z,73.23
2019-06-27T03:59:12.964Z,73.52
2019-06-27T04:01:38.327Z,73.65
2019-06-27T04:04:04.357Z,73.51
2019-06-27T04:06:30.342Z,73.72
2019-06-27T04:08:56.468Z,74.11
2019-06-27T04:11:22.672Z,74.20
2019-06-27T04:13:48.689Z,74.25
2019-06-27T04:16:15.150Z,74.12
2019-06-27T04:18:41.274Z,74.32
2019-06-27T04:21:07.405Z,75.05
2019-06-27T04:23:33.448Z,75.24
2019-06-27T04:25:59.441Z,75.05
2019-06-27T04:28:25.443Z,75.23
2019-06-27T04:30:51.456Z,75.52
2019-06-27T04:33:17.733Z,75.30
2019-06-27T04:35:44.001Z,75.13
2019-06-27T04:38:10.033Z,74.30
2019-06-27T04:40:36.064Z,74.23
2019-06-27T04:43:05.298Z,73.90
2019-06-27T04:45:30.048Z,73.89
2019-06-27T04:47:56.089Z,73.56
2019-06-27T04:50:22.224Z,72.84
2019-06-27T04:52:48.329Z,73.17
2019-06-27T04:55:14.362Z,73.48
2019-06-27T04:57:40.365Z,73.40
2019-06-27T05:00:06.701Z,72.78
2019-06-27T05:02:32.814Z,72.46
2019-06-27T05:04:58.917Z,72.50
2019-06-27T05:07:24.935Z,72.80
2019-06-27T05:09:50.911Z,72.27
2019-06-27T05:12:17.022Z,71.62
2019-06-27T05:14:43.028Z,70.89
2019-06-27T05:17:09.064Z,70.97
2019-06-27T05:19:35.351Z,70.57
2019-06-27T05:22:01.395Z,70.32
2019-06-27T05:24:27.468Z,70.31
2019-06-27T05:26:53.464Z,70.79
2019-06-27T05:29:19.491Z,71.02
2019-06-27T05:31:45.461Z,70.88
2019-06-27T05:34:11.578Z,71.06
2019-06-27T05:36:37.552Z,70.53
2019-06-27T05:39:04.845Z,71.07
2019-06-27T05:41:30.845Z,71.52
2019-06-27T05:43:56.833Z,72.60
2019-06-27T05:46:22.921Z,72.29
2019-06-27T05:48:48.932Z,71.98
2019-06-27T05:51:14.899Z,71.69
2019-06-27T05:53:40.929Z,71.66
2019-06-27T05:56:06.952Z,71.69
2019-06-27T05:58:32.921Z,71.35
2019-06-27T06:00:58.948Z,71.29
2019-06-27T06:03:24.954Z,71.41
2019-06-27T06:05:51.017Z,71.59
2019-06-27T06:08:17.118Z,71.05
2019-06-27T06:10:43.098Z,71.09
2019-06-27T06:13:09.127Z,71.68
2019-06-27T06:15:35.234Z,71.55
2019-06-27T06:18:01.226Z,72.30
2019-06-27T06:20:27.288Z,72.95
2019-06-27T06:22:53.304Z,73.13
2019-06-27T06:25:19.292Z,71.88
2019-06-27T06:27:45.346Z,72.44
2019-06-27T06:30:12.069Z,72.16
2019-06-27T06:32:38.076Z,72.24
2019-06-27T06:35:05.584Z,70.74
2019-06-27T06:37:31.678Z,70.22
2019-06-27T06:39:57.695Z,69.98
2019-06-27T06:42:23.700Z,69.48
2019-06-27T06:44:49.728Z,69.63
2019-06-27T06:47:15.957Z,68.83
2019-06-27T06:49:41.945Z,68.02
2019-06-27T06:52:07.953Z,68.86
2019-06-27T06:54:33.972Z,69.90
2019-06-27T06:56:59.987Z,69.94
2019-06-27T06:59:25.980Z,69.75
2019-06-27T07:01:51.997Z,70.15
2019-06-27T07:04:18.168Z,69.98
2019-06-27T07:06:44.192Z,70.41
2019-06-27T07:09:10.215Z,70.11
2019-06-27T07:11:36.276Z,69.21
2019-06-27T07:14:02.476Z,69.30
2019-06-27T07:16:28.510Z,69.13
2019-06-27T07:18:54.551Z,68.25
2019-06-27T07:21:20.628Z,68.08
2019-06-27T07:23:46.670Z,67.98
2019-06-27T07:26:12.692Z,67.78
2019-06-27T07:28:38.844Z,67.37
2019-06-27T07:31:17.394Z,65.18
2019-06-27T07:33:32.731Z,64.10
2019-06-27T07:35:58.778Z,64.75
2019-06-27T07:38:25.113Z,65.03
2019-06-27T07:40:51.089Z,65.01
2019-06-27T07:43:17.115Z,64.29
2019-06-27T07:45:43.141Z,65.01
2019-06-27T07:48:09.249Z,66.80
2019-06-27T07:50:35.312Z,66.98
2019-06-27T07:53:01.525Z,66.99
2019-06-27T07:55:27.680Z,67.14
2019-06-27T07:57:53.720Z,67.49
2019-06-27T08:00:21.108Z,67.01
2019-06-27T08:02:47.116Z,67.03
2019-06-27T08:05:13.651Z,66.55
2019-06-27T08:07:39.692Z,66.77
2019-06-27T08:10:06.262Z,66.38
2019-06-27T08:12:32.252Z,66.54
2019-06-27T08:14:58.278Z,65.73
2019-06-27T08:17:24.278Z,64.61
2019-06-27T08:19:50.333Z,64.15
2019-06-27T08:22:16.320Z,64.60
2019-06-27T08:24:42.311Z,63.19
2019-06-27T08:27:08.352Z,62.83
2019-06-27T08:29:34.452Z,62.90
2019-06-27T08:32:00.504Z,63.42
2019-06-27T08:34:26.512Z,63.90
2019-06-27T08:36:52.556Z,63.16
2019-06-27T08:39:18.634Z,61.70
2019-06-27T08:41:44.648Z,63.29
2019-06-27T08:44:11.031Z,61.61
2019-06-27T08:46:37.000Z,62.27
2019-06-27T08:49:03.262Z,63.30
2019-06-27T08:51:29.387Z,63.81
2019-06-27T08:53:55.509Z,64.16
2019-06-27T08:56:21.552Z,63.93
2019-06-27T08:58:47.548Z,62.83
2019-06-27T09:01:13.569Z,63.10
2019-06-27T09:03:39.637Z,61.97
2019-06-27T09:06:05.694Z,62.33
2019-06-27T09:08:31.670Z,61.62
2019-06-27T09:10:57.690Z,61.57
2019-06-27T09:13:23.692Z,61.23
2019-06-27T09:15:49.713Z,62.39
2019-06-27T09:18:15.709Z,62.26
2019-06-27T09:20:41.752Z,62.51
2019-06-27T09:23:07.736Z,62.32
2019-06-27T09:25:33.768Z,61.42
2019-06-27T09:27:59.810Z,60.91
2019-06-27T09:30:26.037Z,61.29
2019-06-27T09:32:52.028Z,61.65
2019-06-27T09:35:18.065Z,62.13
2019-06-27T09:37:44.052Z,62.82
2019-06-27T09:40:10.209Z,63.45
2019-06-27T09:42:36.183Z,63.55
2019-06-27T09:45:05.692Z,61.97
2019-06-27T09:47:31.764Z,61.61
2019-06-27T09:49:57.796Z,61.33
2019-06-27T09:52:23.808Z,61.24
2019-06-27T09:54:49.829Z,61.65
2019-06-27T09:57:15.865Z,61.41
2019-06-27T09:59:41.957Z,60.96
2019-06-27T10:02:08.001Z,61.28
2019-06-27T10:04:34.313Z,62.47
2019-06-27T10:07:00.323Z,63.33
2019-06-27T10:09:26.328Z,62.27
2019-06-27T10:11:53.427Z,60.34
2019-06-27T10:14:19.654Z,60.09
2019-06-27T10:16:45.653Z,59.39
2019-06-27T10:19:11.694Z,59.04
2019-06-27T10:21:37.727Z,58.85
2019-06-27T10:24:03.856Z,59.32
2019-06-27T10:26:29.866Z,59.71
2019-06-27T10:28:55.871Z,58.41
2019-06-27T10:31:21.932Z,58.32
2019-06-27T10:33:47.971Z,57.53
2019-06-27T10:36:13.995Z,57.64
2019-06-27T10:38:40.035Z,57.59
2019-06-27T10:41:06.055Z,57.49
2019-06-27T10:43:32.042Z,57.67
2019-06-27T10:45:58.028Z,57.99
2019-06-27T10:48:24.119Z,58.73
2019-06-27T10:50:50.106Z,59.68
2019-06-27T10:53:16.311Z,58.69
2019-06-27T10:55:42.358Z,59.33
2019-06-27T10:58:08.357Z,59.63
2019-06-27T11:00:34.385Z,59.18
2019-06-27T11:03:14.375Z,58.49
2019-06-27T11:05:28.337Z,58.25
2019-06-27T11:07:54.419Z,59.11
2019-06-27T11:10:20.488Z,59.27
2019-06-27T11:12:46.528Z,60.27
2019-06-27T11:15:13.102Z,59.49
2019-06-27T11:17:39.329Z,60.20
2019-06-27T11:20:05.973Z,61.64
2019-06-27T11:22:31.996Z,62.21
2019-06-27T11:24:58.012Z,61.91
2019-06-27T11:27:27.305Z,61.58
2019-06-27T11:29:52.072Z,60.42
2019-06-27T11:32:18.087Z,60.97
2019-06-27T11:34:44.133Z,60.43
2019-06-27T11:37:10.169Z,59.85
2019-06-27T11:39:36.211Z,59.53
2019-06-27T11:42:02.254Z,60.27
2019-06-27T11:44:28.615Z,59.99
2019-06-27T11:46:54.618Z,60.04
2019-06-27T11:49:20.618Z,59.43
2019-06-27T11:51:46.672Z,58.76
2019-06-27T11:54:12.707Z,59.10
2019-06-27T11:56:38.778Z,58.98
2019-06-27T11:59:04.857Z,59.43
2019-06-27T12:01:30.833Z,59.46
2019-06-27T12:03:56.870Z,58.82
2019-06-27T12:06:22.893Z,58.09
2019-06-27T12:08:48.883Z,58.04
2019-06-27T12:11:14.911Z,57.98
2019-06-27T12:13:40.933Z,59.49
2019-06-27T12:16:06.912Z,60.06
2019-06-27T12:18:32.912Z,60.53
2019-06-27T12:20:58.897Z,61.01
2019-06-27T12:23:24.860Z,60.24
2019-06-27T12:25:50.893Z,59.91
2019-06-27T12:28:16.868Z,59.01
2019-06-27T12:30:42.897Z,58.95
2019-06-27T12:33:09.141Z,59.23
2019-06-27T12:35:35.185Z,58.59
2019-06-27T12:38:01.267Z,58.75
2019-06-27T12:40:27.297Z,57.63
2019-06-27T12:42:53.294Z,57.78
2019-06-27T12:45:19.867Z,59.32
2019-06-27T12:47:45.946Z,58.79
2019-06-27T12:50:14.676Z,59.37
2019-06-27T12:52:40.699Z,59.24
2019-06-27T12:55:07.034Z,58.35
2019-06-27T12:57:33.052Z,58.06
2019-06-27T12:59:59.403Z,55.36
2019-06-27T13:02:25.491Z,55.24
2019-06-27T13:04:51.499Z,54.74
2019-06-27T13:07:17.549Z,54.09
2019-06-27T13:09:43.542Z,54.62
2019-06-27T13:12:09.594Z,54.70
2019-06-27T13:14:35.633Z,54.76
2019-06-27T13:17:01.654Z,54.32
2019-06-27T13:19:27.740Z,53.86
2019-06-27T13:21:53.877Z,54.60
2019-06-27T13:24:20.022Z,55.02
2019-06-27T13:26:46.056Z,54.80
2019-06-27T13:29:12.035Z,54.79
2019-06-27T13:31:38.046Z,54.87
2019-06-27T13:34:04.048Z,55.78
2019-06-27T13:36:33.117Z,55.10
2019-06-27T13:38:57.973Z,58.73
2019-06-27T13:41:23.972Z,57.60
2019-06-27T13:43:50.072Z,54.64
2019-06-27T13:46:16.080Z,55.07
2019-06-27T13:48:42.110Z,54.73
2019-06-27T13:51:08.071Z,55.79
2019-06-27T13:53:34.096Z,55.88
2019-06-27T13:56:00.132Z,55.61
2019-06-27T13:58:26.142Z,56.56
2019-06-27T14:00:52.173Z,56.21
2019-06-27T14:03:18.209Z,55.71
2019-06-27T14:05:44.200Z,55.73
2019-06-27T14:08:10.295Z,56.13
2019-06-27T14:10:36.325Z,55.32
2019-06-27T14:13:02.423Z,54.92
2019-06-27T14:15:28.410Z,55.50
2019-06-27T14:17:54.518Z,61.86
2019-06-27T14:20:20.581Z,56.84
2019-06-27T14:22:46.608Z,56.42
2019-06-27T14:25:12.626Z,57.09
2019-06-27T14:27:38.652Z,56.50
2019-06-27T14:30:06.924Z,56.63
2019-06-27T14:32:33.200Z,55.15
2019-06-27T14:35:13.952Z,57.15
2019-06-27T14:37:27.124Z,57.93
2019-06-27T14:39:56.451Z,56.05
2019-06-27T14:42:21.066Z,56.32
2019-06-27T14:44:47.296Z,55.84
2019-06-27T14:47:13.614Z,56.10
2019-06-27T14:49:40.676Z,55.18
2019-06-27T14:52:06.776Z,54.87
2019-06-27T14:54:34.640Z,53.95
2019-06-27T14:57:01.324Z,53.54
2019-06-27T14:59:27.334Z,53.77
2019-06-27T15:01:53.363Z,55.00
2019-06-27T15:04:19.404Z,55.25
2019-06-27T15:06:45.710Z,57.02
2019-06-27T15:09:11.953Z,57.47
2019-06-27T15:11:37.955Z,56.33
2019-06-27T15:14:04.054Z,57.09
2019-06-27T15:16:31.026Z,58.02
2019-06-27T15:18:57.152Z,58.01
2019-06-27T15:21:23.255Z,57.88
2019-06-27T15:23:49.253Z,56.85
2019-06-27T15:26:15.334Z,56.28
2019-06-27T15:28:41.435Z,56.15
2019-06-27T15:31:07.440Z,57.14
2019-06-27T15:33:33.785Z,56.17
2019-06-27T15:35:59.835Z,56.31
2019-06-27T15:38:27.819Z,56.85
2019-06-27T15:40:55.413Z,58.14
2019-06-27T15:43:21.825Z,57.05
2019-06-27T15:45:47.933Z,57.89
2019-06-27T15:48:14.144Z,58.53
2019-06-27T15:50:40.235Z,58.17
2019-06-27T15:53:06.449Z,58.24
2019-06-27T15:55:32.551Z,59.16
2019-06-27T15:57:58.643Z,58.67
2019-06-27T16:00:24.734Z,58.88
2019-06-27T16:02:50.852Z,60.20
2019-06-27T16:05:16.878Z,60.72
2019-06-27T16:07:43.054Z,62.25
2019-06-27T16:10:10.138Z,61.32
2019-06-27T16:12:38.085Z,62.30
2019-06-27T16:15:07.861Z,61.64
2019-06-27T16:17:33.979Z,61.95
2019-06-27T16:20:00.089Z,62.68
2019-06-27T16:22:26.103Z,63.07
2019-06-27T16:24:52.132Z,63.48
2019-06-27T16:27:18.224Z,63.28
2019-06-27T16:29:44.650Z,64.11
2019-06-27T16:32:10.791Z,64.61
2019-06-27T16:34:37.874Z,64.03
2019-06-27T16:37:04.158Z,64.38
2019-06-27T16:39:30.348Z,64.74
2019-06-27T16:41:56.503Z,65.58
2019-06-27T16:44:22.720Z,64.94
2019-06-27T16:46:49.410Z,63.26
2019-06-27T16:49:16.079Z,62.21
2019-06-27T16:51:42.081Z,62.40
2019-06-27T16:54:08.068Z,63.71
2019-06-27T16:56:34.136Z,63.81
2019-06-27T16:59:00.337Z,64.93
2019-06-27T17:01:27.332Z,64.67
2019-06-27T17:03:53.437Z,64.37
2019-06-27T17:06:19.560Z,64.14
2019-06-27T17:08:45.592Z,64.15
2019-06-27T17:11:11.737Z,64.40
2019-06-27T17:13:37.885Z,64.90
2019-06-27T17:16:04.204Z,65.18
2019-06-27T17:18:30.659Z,64.74
2019-06-27T17:20:58.146Z,64.91
2019-06-27T17:23:24.360Z,65.26
2019-06-27T17:25:50.524Z,65.62
2019-06-27T17:28:16.878Z,65.99
2019-06-27T17:30:43.652Z,66.84
2019-06-27T17:33:10.929Z,67.78
2019-06-27T17:35:37.224Z,67.40
2019-06-27T17:38:13.917Z,67.51
2019-06-27T17:40:43.200Z,67.20
2019-06-27T17:43:09.331Z,67.12
2019-06-27T17:45:35.365Z,66.98
2019-06-27T17:48:01.552Z,66.84
2019-06-27T17:50:27.594Z,66.85
2019-06-27T17:52:53.672Z,66.87
2019-06-27T17:55:20.035Z,67.32
2019-06-27T17:57:47.342Z,67.17
2019-06-27T18:00:14.098Z,67.13
2019-06-27T18:02:40.154Z,67.28
2019-06-27T18:05:07.296Z,67.18
2019-06-27T18:07:33.493Z,67.61
2019-06-27T18:10:00.315Z,68.12
2019-06-27T18:12:27.528Z,67.66
2019-06-27T18:14:53.597Z,67.92
2019-06-27T18:17:32.423Z,67.78
2019-06-27T18:19:47.756Z,68.15
2019-06-27T18:22:13.844Z,68.28
2019-06-27T18:24:41.756Z,68.54
2019-06-27T18:27:08.126Z,68.66
2019-06-27T18:29:34.248Z,68.56
2019-06-27T18:32:00.420Z,67.95
2019-06-27T18:34:26.550Z,68.08
2019-06-27T18:36:52.652Z,68.44
2019-06-27T18:39:18.692Z,68.62
2019-06-27T18:41:44.775Z,68.93
2019-06-27T18:44:10.790Z,69.35
2019-06-27T18:46:36.904Z,69.83
2019-06-27T18:49:02.914Z,69.52
2019-06-27T18:51:28.955Z,69.82
2019-06-27T18:53:54.960Z,69.81
2019-06-27T18:56:20.968Z,69.87
2019-06-27T18:58:47.066Z,69.76
2019-06-27T19:01:13.157Z,69.79
2019-06-27T19:03:39.237Z,69.58
2019-06-27T19:06:05.245Z,69.99
2019-06-27T19:08:31.396Z,70.47
2019-06-27T19:10:59.349Z,70.78
2019-06-27T19:13:25.355Z,71.15
2019-06-27T19:15:51.539Z,71.53
2019-06-27T19:18:35.776Z,71.33
2019-06-27T19:21:03.710Z,71.75
2019-06-27T19:23:31.641Z,71.75
2019-06-27T19:25:58.460Z,71.61
2019-06-27T19:28:24.489Z,71.55
2019-06-27T19:30:50.515Z,72.26
2019-06-27T19:33:17.260Z,72.33
2019-06-27T19:35:43.283Z,72.40
2019-06-27T19:38:12.972Z,72.57
2019-06-27T19:40:38.999Z,73.10
2019-06-27T19:43:05.061Z,73.01
2019-06-27T19:45:31.069Z,73.05
2019-06-27T19:47:57.081Z,73.33
2019-06-27T19:50:23.148Z,73.45
2019-06-27T19:52:49.297Z,73.42
2019-06-27T19:55:15.534Z,73.41
2019-06-27T19:57:41.511Z,77.10
2019-06-27T20:00:08.008Z,73.85
2019-06-27T20:02:39.123Z,74.18
2019-06-27T20:05:05.468Z,74.74
2019-06-27T20:08:18.976Z,74.71
2019-06-27T20:10:37.360Z,79.74
2019-06-27T20:13:03.599Z,74.81
2019-06-27T20:15:29.620Z,74.78
2019-06-27T20:17:55.865Z,74.89
2019-06-27T20:20:21.897Z,75.01
2019-06-27T20:22:48.147Z,75.30
2019-06-27T20:25:14.156Z,75.24
2019-06-27T20:27:40.180Z,75.68
2019-06-27T20:30:07.008Z,77.79
2019-06-27T20:32:33.037Z,75.82
2019-06-27T20:34:59.201Z,76.14
2019-06-27T20:37:27.103Z,76.75
2019-06-27T20:39:53.294Z,77.08
2019-06-27T20:42:19.387Z,77.03
2019-06-27T20:44:45.371Z,77.18
2019-06-27T20:47:11.427Z,77.08
2019-06-27T20:49:37.462Z,77.07
2019-06-27T20:52:03.483Z,77.07
2019-06-27T20:54:29.587Z,77.03
2019-06-27T20:56:55.651Z,77.44
2019-06-27T20:59:21.650Z,77.62
2019-06-27T21:01:47.959Z,77.35
2019-06-27T21:04:13.987Z,77.27
2019-06-27T21:06:40.104Z,77.34
2019-06-27T21:09:06.127Z,77.04
2019-06-27T21:11:32.276Z,77.00
2019-06-27T21:13:58.274Z,76.83
2019-06-27T21:16:24.276Z,76.82
2019-06-27T21:18:51.178Z,77.23
2019-06-27T21:21:17.605Z,77.39
2019-06-27T21:23:43.644Z,77.23
2019-06-27T21:26:09.712Z,77.45
2019-06-27T21:28:35.781Z,77.22
2019-06-27T21:31:01.900Z,77.64
2019-06-27T21:33:28.062Z,77.50
2019-06-27T21:35:54.027Z,78.64
2019-06-27T21:38:20.024Z,81.28
2019-06-27T21:40:46.054Z,76.52
2019-06-27T21:43:12.036Z,77.45
2019-06-27T21:45:38.120Z,77.71
2019-06-27T21:48:04.328Z,77.98
2019-06-27T21:50:30.337Z,78.00
2019-06-27T21:52:56.394Z,78.16
2019-06-27T21:55:22.552Z,78.18
2019-06-27T21:57:48.658Z,78.45
2019-06-27T22:00:14.975Z,79.08
2019-06-27T22:02:41.008Z,78.57
2019-06-27T22:05:07.170Z,79.95
2019-06-27T22:07:33.221Z,82.74
2019-06-27T22:09:59.244Z,80.63
2019-06-27T22:12:25.278Z,80.15
2019-06-27T22:14:51.267Z,79.60
2019-06-27T22:17:17.449Z,78.84
2019-06-27T22:19:43.474Z,78.94
2019-06-27T22:22:09.468Z,78.84
2019-06-27T22:24:35.527Z,77.61
2019-06-27T22:27:01.560Z,78.14
2019-06-27T22:29:27.920Z,77.81
2019-06-27T22:31:53.939Z,77.35
2019-06-27T22:34:20.208Z,78.16
2019-06-27T22:36:46.221Z,79.16
2019-06-27T22:39:40.110Z,78.80
2019-06-27T22:42:16.612Z,78.45
2019-06-27T22:45:01.030Z,78.19
2019-06-27T22:47:45.153Z,78.41
2019-06-27T22:50:19.470Z,79.45
2019-06-27T22:52:50.185Z,79.38
2019-06-27T22:55:23.665Z,79.35
2019-06-27T22:57:49.760Z,79.61
2019-06-27T23:00:16.040Z,79.93
2019-06-27T23:02:42.011Z,79.86
2019-06-27T23:05:08.402Z,80.88
2019-06-27T23:07:34.403Z,80.75
2019-06-27T23:10:00.379Z,80.82
2019-06-27T23:12:26.627Z,81.06
2019-06-27T23:14:52.640Z,81.21
2019-06-27T23:17:18.705Z,81.64
2019-06-27T23:19:44.770Z,81.60
2019-06-27T23:22:10.777Z,81.67
2019-06-27T23:24:36.899Z,81.93
2019-06-27T23:27:02.882Z,82.05
2019-06-27T23:29:28.885Z,82.09
2019-06-27T23:31:54.948Z,82.52
2019-06-27T23:34:20.960Z,82.80
2019-06-27T23:36:46.955Z,82.83
2019-06-27T23:39:13.383Z,82.52
2019-06-27T23:41:39.668Z,82.70
2019-06-27T23:44:05.908Z,82.54
2019-06-27T23:46:39.590Z,82.06
2019-06-27T23:49:05.677Z,81.54
2019-06-27T23:51:31.688Z,81.07
2019-06-27T23:53:57.745Z,81.02
2019-06-27T23:56:23.735Z,80.49
2019-06-27T23:58:49.780Z,80.04
